Time;durP1;ratioP1;P1;durP2;ratioP2;P2;SDS_P1;SDS_P2;PMS_P1;PMS_P2;Temp;Humidity;BMP_temperature;BMP_pressure;BME280_temperature;BME280_humidity;BME280_pressure;Samples;Min_cycle;Max_cycle;Signal;HPM_P1;HPM_P2
2022/08/04 00:01:06;;;;;;;;;;;;;;;30.63;37.04;94191.16;5023474;28;9330;-63
2022/08/04 00:03:54;;;;;;;;;;;;;;;30.62;36.38;94186.16;5014287;28;7596;-62
2022/08/04 00:06:46;;;;;;;;;;;;;;;30.62;35.97;94186.91;5019782;28;7202;-62
2022/08/04 00:09:24;;;;;;;;;;;;;;;30.60;36.68;94186.72;5023073;28;7232;-62
2022/08/04 00:11:59;;;;;;;;;;;;;;;30.61;37.22;94173.53;5021021;28;7609;-62
2022/08/04 00:14:33;;;;;;;;;;;;;;;30.61;36.49;94179.09;5016606;28;7895;-62
2022/08/04 00:17:03;;;;;;;;;;;;;;;30.60;36.97;94175.59;5017910;28;7298;-62
2022/08/04 00:19:38;;;;;;;;;;;;;;;30.59;35.97;94179.66;5016680;28;7490;-62
2022/08/04 00:22:12;;;;;;;;;;;;;;;30.59;36.90;94182.44;5015688;28;7161;-63
2022/08/04 00:24:40;;;;;;;;;;;;;;;30.61;36.02;94182.63;5007427;28;9124;-62
2022/08/04 00:27:07;;;;;;;;;;;;;;;30.60;36.34;94180.41;5007093;28;9470;-63
2022/08/04 00:29:38;;;;;;;;;;;;;;;30.60;36.39;94183.94;5015532;28;7221;-62
2022/08/04 00:32:09;;;;;;;;;;;;;;;30.60;37.01;94183.94;5033198;28;9206;-62
2022/08/04 00:34:42;;;;;;;;;;;;;;;30.57;36.56;94175.94;5046444;28;7088;-63
2022/08/04 00:37:20;;;;;;;;;;;;;;;30.57;36.85;94181.50;5054062;28;9098;-62
2022/08/04 00:39:54;;;;;;;;;;;;;;;30.58;37.17;94189.25;5068805;28;7230;-62
2022/08/04 00:42:36;;;;;;;;;;;;;;;30.57;36.63;94184.28;5042584;28;9065;-62
2022/08/04 00:45:22;;;;;;;;;;;;;;;30.59;36.45;94187.97;5066857;28;7016;-63
2022/08/04 00:48:05;;;;;;;;;;;;;;;30.59;35.94;94190.00;5065775;28;7055;-63
2022/08/04 00:50:40;;;;;;;;;;;;;;;30.57;36.72;94185.00;5067030;28;8020;-62
2022/08/04 00:53:38;;;;;;;;;;;;;;;30.57;36.88;94187.03;5042293;28;7043;-63
2022/08/04 00:56:31;;;;;;;;;;;;;;;30.58;36.56;94185.75;5054311;28;7403;-63
2022/08/04 00:59:23;;;;;;;;;;;;;;;30.57;36.99;94189.81;4954223;28;7632;-63
2022/08/04 01:02:05;;;;;;;;;;;;;;;30.56;36.98;94191.13;4970218;28;7165;-62
2022/08/04 01:04:51;;;;;;;;;;;;;;;30.56;35.95;94183.53;4971388;28;7575;-62
2022/08/04 01:07:31;;;;;;;;;;;;;;;30.56;36.14;94191.13;4971820;28;7025;-63
2022/08/04 01:10:16;;;;;;;;;;;;;;;30.55;36.72;94187.59;4971540;28;7238;-62
2022/08/04 01:13:01;;;;;;;;;;;;;;;30.54;36.92;94189.63;4971010;28;7082;-62
2022/08/04 01:15:43;;;;;;;;;;;;;;;30.54;36.05;94188.88;4952654;28;9106;-62
2022/08/04 01:18:24;;;;;;;;;;;;;;;30.54;36.85;94184.06;4955639;28;7288;-63
2022/08/04 01:20:53;;;;;;;;;;;;;;;30.53;35.82;94185.38;4954678;28;8272;-62
2022/08/04 01:23:27;;;;;;;;;;;;;;;30.52;35.84;94186.66;4971019;28;7239;-63
2022/08/04 01:26:13;;;;;;;;;;;;;;;30.52;36.74;94188.69;4971751;28;7216;-63
2022/08/04 01:29:12;;;;;;;;;;;;;;;30.51;36.63;94187.94;4970309;28;7289;-62
2022/08/04 01:31:50;;;;;;;;;;;;;;;30.50;36.07;94183.69;4969222;28;7257;-63
2022/08/04 01:34:33;;;;;;;;;;;;;;;30.52;36.23;94183.13;4969911;28;7195;-63
2022/08/04 01:37:09;;;;;;;;;;;;;;;30.52;36.10;94186.66;5067418;28;7266;-63
2022/08/04 01:39:59;;;;;;;;;;;;;;;30.51;35.90;94176.13;5071585;28;7322;-62
2022/08/04 01:42:30;;;;;;;;;;;;;;;30.50;36.22;94177.41;5054034;28;7493;-62
2022/08/04 01:45:01;;;;;;;;;;;;;;;30.48;36.98;94171.66;5071363;28;6894;-62
2022/08/04 01:47:41;;;;;;;;;;;;;;;30.49;36.94;94175.94;5045968;28;8734;-63
2022/08/04 01:50:13;;;;;;;;;;;;;;;30.47;36.38;94176.44;5046368;28;7385;-62
2022/08/04 01:52:43;;;;;;;;;;;;;;;30.48;36.60;94172.41;5043367;28;7190;-62
2022/08/04 01:55:12;;;;;;;;;;;;;;;30.48;36.98;94177.94;5047893;28;7155;-63
2022/08/04 01:57:47;;;;;;;;;;;;;;;30.47;36.91;94172.97;5053122;28;9253;-63
2022/08/04 02:00:28;;;;;;;;;;;;;;;30.48;36.08;94172.41;5071209;28;9104;-63
2022/08/04 02:02:56;;;;;;;;;;;;;;;30.48;36.22;94179.97;5047595;28;7068;-62
2022/08/04 02:05:25;;;;;;;;;;;;;;;30.45;36.97;94170.72;5070155;28;8793;-63
2022/08/04 02:08:19;;;;;;;;;;;;;;;30.46;36.52;94174.22;5043955;28;7182;-62
2022/08/04 02:11:18;;;;;;;;;;;;;;;30.46;37.08;94171.47;5070151;28;7272;-63
2022/08/04 02:13:56;;;;;;;;;;;;;;;30.45;36.93;94175.50;4952162;28;8227;-62
2022/08/04 02:16:43;;;;;;;;;;;;;;;30.46;37.08;94171.47;4949107;28;9030;-62
2022/08/04 02:19:32;;;;;;;;;;;;;;;30.44;36.51;94165.72;4948542;28;7201;-63
2022/08/04 02:22:08;;;;;;;;;;;;;;;30.44;36.33;94171.25;4947996;28;9214;-62
2022/08/04 02:24:48;;;;;;;;;;;;;;;30.44;36.97;94166.47;4965086;28;7266;-63
2022/08/04 02:27:21;;;;;;;;;;;;;;;30.42;36.95;94174.59;4950562;28;7290;-63
2022/08/04 02:29:50;;;;;;;;;;;;;;;30.41;36.26;94170.31;4948218;28;9143;-62
2022/08/04 02:32:27;;;;;;;;;;;;;;;30.43;36.90;94173.28;4948636;28;9066;-63
2022/08/04 02:35:02;;;;;;;;;;;;;;;30.43;36.13;94181.63;4949092;28;7257;-63
2022/08/04 02:37:31;;;;;;;;;;;;;;;30.43;36.94;94169.78;4949841;28;7220;-62
2022/08/04 02:40:00;;;;;;;;;;;;;;;30.43;36.50;94169.78;4949297;28;7369;-62
2022/08/04 02:42:28;;;;;;;;;;;;;;;30.41;37.04;94164.03;4964840;28;7105;-63
2022/08/04 02:44:58;;;;;;;;;;;;;;;30.41;36.91;94164.03;4950447;28;7255;-62
2022/08/04 02:47:38;;;;;;;;;;;;;;;30.41;36.99;94161.25;4953723;28;7314;-62
2022/08/04 02:50:10;;;;;;;;;;;;;;;30.40;36.42;94166.09;4993769;28;7263;-62
2022/08/04 02:52:41;;;;;;;;;;;;;;;30.40;36.56;94166.09;5043746;28;7005;-62
2022/08/04 02:55:12;;;;;;;;;;;;;;;30.40;36.05;94171.63;5068812;28;7008;-63
2022/08/04 02:57:51;;;;;;;;;;;;;;;30.40;36.20;94168.09;5051509;28;7653;-63
2022/08/04 03:00:21;;;;;;;;;;;;;;;30.38;35.82;94165.84;5044288;28;9052;-62
2022/08/04 03:03:10;;;;;;;;;;;;;;;30.40;36.28;94165.34;5052122;28;7252;-63
2022/08/04 03:06:13;;;;;;;;;;;;;;;30.40;35.83;94160.53;5052981;28;7229;-62
2022/08/04 03:12:54;;;;;;;;;;;;;;;30.40;36.55;94170.88;5070195;28;7487;-62
2022/08/04 03:15:48;;;;;;;;;;;;;;;30.38;36.94;94167.91;4991141;28;7090;-63
2022/08/04 03:18:32;;;;;;;;;;;;;;;30.39;36.93;94169.38;5006391;28;7713;-62
2022/08/04 03:21:12;;;;;;;;;;;;;;;30.38;36.13;94162.38;4993398;28;7002;-63
2022/08/04 03:24:15;;;;;;;;;;;;;;;30.37;36.39;94156.06;4995720;28;7225;-63
2022/08/04 03:27:10;;;;;;;;;;;;;;;30.36;36.46;94165.66;4983142;28;7227;-62
2022/08/04 03:29:58;;;;;;;;;;;;;;;30.37;36.13;94167.16;5005109;28;7346;-63
2022/08/04 03:33:13;;;;;;;;;;;;;;;30.36;35.81;94165.66;4998555;28;7010;-62
2022/08/04 03:36:03;;;;;;;;;;;;;;;30.36;36.17;94165.66;5006284;28;7396;-63
2022/08/04 03:39:00;;;;;;;;;;;;;;;30.35;36.01;94164.19;4999169;28;9102;-63
2022/08/04 03:41:50;;;;;;;;;;;;;;;30.35;36.25;94166.22;4990118;28;9030;-63
2022/08/04 03:44:51;;;;;;;;;;;;;;;30.36;36.20;94160.13;4989609;28;7225;-63
2022/08/04 03:47:38;;;;;;;;;;;;;;;30.34;35.84;94161.97;4989107;28;9452;-63
2022/08/04 03:50:30;;;;;;;;;;;;;;;30.33;36.52;94169.56;5012022;28;7343;-62
2022/08/04 03:53:14;;;;;;;;;;;;;;;30.35;35.87;94166.22;5042473;28;8952;-63
2022/08/04 03:56:31;;;;;;;;;;;;;;;30.33;36.70;94172.34;5049853;28;9462;-63
2022/08/04 03:59:37;;;;;;;;;;;;;;;30.32;36.96;94170.13;4966750;28;7373;-63
2022/08/04 04:02:30;;;;;;;;;;;;;;;30.34;36.81;94173.09;4909182;29;7269;-63
2022/08/04 04:05:14;;;;;;;;;;;;;;;30.33;36.90;94177.88;4909617;29;7227;-62
2022/08/04 04:08:30;;;;;;;;;;;;;;;30.33;36.85;94175.09;4893034;29;7121;-62
2022/08/04 04:11:21;;;;;;;;;;;;;;;30.31;35.89;94172.13;4893736;29;9460;-63
2022/08/04 04:14:09;;;;;;;;;;;;;;;30.31;35.63;94174.16;4893656;29;7314;-63
2022/08/04 04:16:59;;;;;;;;;;;;;;;30.30;35.97;94175.41;4886447;29;7615;-63
2022/08/04 04:19:59;;;;;;;;;;;;;;;30.29;36.56;94174.69;4909166;29;9547;-63
2022/08/04 04:22:51;;;;;;;;;;;;;;;30.28;36.17;94187.06;4893546;29;9795;-63
2022/08/04 04:25:47;;;;;;;;;;;;;;;30.30;35.81;94178.94;4909415;29;7303;-62
2022/08/04 04:31:59;;;;;;;;;;;;;;;30.29;36.76;94177.47;4914339;29;7002;-62
2022/08/04 04:34:30;;;;;;;;;;;;;;;30.29;36.64;94183.00;4929661;28;8845;-63
2022/08/04 04:37:06;;;;;;;;;;;;;;;30.26;35.98;94178.56;4984406;28;9492;-63
2022/08/04 04:40:02;;;;;;;;;;;;;;;30.26;36.59;94186.88;5034741;28;7265;-63
2022/08/04 04:42:47;;;;;;;;;;;;;;;30.25;36.88;94184.66;5066499;28;7274;-63
2022/08/04 04:45:41;;;;;;;;;;;;;;;30.24;36.56;94181.13;5049473;28;9131;-63
2022/08/04 04:48:13;;;;;;;;;;;;;;;30.25;36.09;94188.19;5042038;28;6983;-63
2022/08/04 04:50:51;;;;;;;;;;;;;;;30.26;36.07;94197.97;5053627;28;7156;-63
2022/08/04 04:53:28;;;;;;;;;;;;;;;30.27;36.79;94191.16;5068446;28;7119;-63
2022/08/04 04:56:18;;;;;;;;;;;;;;;30.28;36.39;94191.88;5053804;28;9180;-63
2022/08/04 04:58:57;;;;;;;;;;;;;;;30.27;35.90;94199.47;5051478;28;7742;-63
2022/08/04 05:01:36;;;;;;;;;;;;;;;30.27;36.39;94190.41;5055199;28;7103;-63
2022/08/04 05:05:00;;;;;;;;;;;;;;;30.27;35.82;94202.25;5069456;28;7320;-63
2022/08/04 05:07:51;;;;;;;;;;;;;;;30.27;36.94;94202.25;4930212;28;8779;-63
2022/08/04 05:10:50;;;;;;;;;;;;;;;30.25;36.80;94202.06;4933041;28;7278;-63
2022/08/04 05:13:41;;;;;;;;;;;;;;;30.24;35.85;94202.56;4932265;28;7571;-62
2022/08/04 05:16:12;;;;;;;;;;;;;;;30.24;36.03;94203.31;4946201;28;9078;-62
2022/08/04 05:18:44;;;;;;;;;;;;;;;30.25;36.08;94204.81;4927224;29;7217;-62
2022/08/04 05:21:42;;;;;;;;;;;;;;;30.23;36.82;94199.06;4948175;28;6980;-63
2022/08/04 05:24:24;;;;;;;;;;;;;;;30.22;36.31;94203.13;4931982;28;7278;-62
2022/08/04 05:27:24;;;;;;;;;;;;;;;30.22;36.68;94208.69;4936463;28;7274;-62
2022/08/04 05:30:05;;;;;;;;;;;;;;;30.24;36.49;94208.88;4933301;28;9127;-63
2022/08/04 05:33:06;;;;;;;;;;;;;;;30.23;36.34;94212.94;4932889;28;9193;-63
2022/08/04 05:35:53;;;;;;;;;;;;;;;30.23;36.33;94214.97;4891438;29;9115;-63
2022/08/04 05:38:37;;;;;;;;;;;;;;;30.23;37.27;94223.31;4875060;29;7235;-63
2022/08/04 05:41:05;;;;;;;;;;;;;;;30.24;36.80;94219.97;4925308;28;7319;-62
2022/08/04 05:43:44;;;;;;;;;;;;;;;30.24;36.95;94216.44;4960105;28;7040;-62
2022/08/04 05:46:26;;;;;;;;;;;;;;;30.25;36.77;94229.78;4948254;28;9064;-62
2022/08/04 05:49:04;;;;;;;;;;;;;;;30.28;36.44;94225.16;4959215;28;7084;-63
2022/08/04 05:51:43;;;;;;;;;;;;;;;30.28;37.25;94219.63;4962001;28;7024;-63
2022/08/04 05:54:11;;;;;;;;;;;;;;;30.26;36.14;94228.50;4953748;28;7240;-63
2022/08/04 05:56:38;;;;;;;;;;;;;;;30.26;37.51;94228.50;4961976;28;7074;-63
2022/08/04 05:59:09;;;;;;;;;;;;;;;30.26;37.34;94222.19;4938303;28;9164;-62
2022/08/04 06:01:39;;;;;;;;;;;;;;;30.27;37.59;94230.00;4962205;28;9172;-62
2022/08/04 06:04:05;;;;;;;;;;;;;;;30.26;37.19;94234.03;4961800;28;7137;-62
2022/08/04 06:06:36;;;;;;;;;;;;;;;30.26;37.29;94234.03;4941961;28;7091;-62
2022/08/04 06:09:13;;;;;;;;;;;;;;;30.24;37.53;94230.31;4943869;28;6992;-62
2022/08/04 06:12:00;;;;;;;;;;;;;;;30.23;37.54;94240.66;5026611;28;7223;-62
2022/08/04 06:14:34;;;;;;;;;;;;;;;30.24;37.52;94238.66;5046322;28;7228;-63
2022/08/04 06:17:04;;;;;;;;;;;;;;;30.22;37.73;94244.75;5046436;28;7067;-62
2022/08/04 06:19:35;;;;;;;;;;;;;;;30.21;37.00;94236.97;5043661;28;8777;-64
2022/08/04 06:22:23;;;;;;;;;;;;;;;30.20;37.73;94246.56;5053159;28;7078;-61
2022/08/04 06:25:01;;;;;;;;;;;;;;;30.17;37.43;94237.31;5069719;28;9223;-61
2022/08/04 06:27:30;;;;;;;;;;;;;;;30.18;37.26;94241.59;5070032;28;7481;-61
2022/08/04 06:30:35;;;;;;;;;;;;;;;30.20;38.07;94233.47;5052167;28;7022;-61
2022/08/04 06:33:26;;;;;;;;;;;;;;;30.21;37.49;94234.22;5044342;28;7306;-61
2022/08/04 06:35:56;;;;;;;;;;;;;;;30.22;37.61;94236.44;5068880;28;7239;-61
2022/08/04 06:38:36;;;;;;;;;;;;;;;30.23;38.38;94240.66;5070930;28;8744;-61
2022/08/04 06:41:08;;;;;;;;;;;;;;;30.21;37.78;94239.75;5049054;28;7266;-61
2022/08/04 06:43:40;;;;;;;;;;;;;;;30.22;38.20;94238.44;5061528;28;7179;-61
2022/08/04 06:46:08;;;;;;;;;;;;;;;30.23;37.91;94248.28;5049566;28;7273;-61
2022/08/04 06:48:36;;;;;;;;;;;;;;;30.22;37.57;94250.28;5067477;28;7302;-61
2022/08/04 06:51:04;;;;;;;;;;;;;;;30.22;38.13;94255.84;5046847;28;8227;-61
2022/08/04 06:53:35;;;;;;;;;;;;;;;30.24;38.01;94258.81;5064375;28;7089;-61
2022/08/04 06:56:02;;;;;;;;;;;;;;;30.23;38.12;94260.09;5065393;28;9140;-61
2022/08/04 06:58:34;;;;;;;;;;;;;;;30.22;37.63;94255.84;5062574;28;7342;-62
2022/08/04 07:01:07;;;;;;;;;;;;;;;30.22;38.24;94266.94;5065370;28;6991;-61
2022/08/04 07:03:44;;;;;;;;;;;;;;;30.19;38.09;94256.94;5048731;28;8216;-62
2022/08/04 07:06:15;;;;;;;;;;;;;;;30.18;38.48;94255.44;5051898;28;7040;-62
2022/08/04 07:08:55;;;;;;;;;;;;;;;30.20;38.04;94257.69;5051120;28;9071;-61
2022/08/04 07:11:32;;;;;;;;;;;;;;;30.19;38.44;94262.47;5074598;28;7360;-61
2022/08/04 07:14:09;;;;;;;;;;;;;;;30.20;38.14;94257.69;5049861;28;7223;-61
2022/08/04 07:16:37;;;;;;;;;;;;;;;30.19;38.34;94261.75;5056616;28;7334;-62
2022/08/04 07:19:04;;;;;;;;;;;;;;;30.19;38.75;94268.03;5053366;28;8876;-62
2022/08/04 07:21:34;;;;;;;;;;;;;;;30.20;38.75;94258.44;5050420;28;6993;-61
2022/08/04 07:24:03;;;;;;;;;;;;;;;30.21;38.23;94264.72;5048423;28;7254;-61
2022/08/04 07:26:36;;;;;;;;;;;;;;;30.21;38.23;94264.72;5055422;28;7040;-61
2022/08/04 07:29:11;;;;;;;;;;;;;;;30.17;37.98;94256.72;5074003;28;7502;-61
2022/08/04 07:31:44;;;;;;;;;;;;;;;30.19;38.21;94262.47;5047550;28;7230;-61
2022/08/04 07:34:19;;;;;;;;;;;;;;;30.19;39.25;94259.69;5055600;28;8476;-62
2022/08/04 07:37:09;;;;;;;;;;;;;;;30.19;38.04;94259.69;5056876;28;9218;-61
2022/08/04 07:39:46;;;;;;;;;;;;;;;30.18;38.49;94252.69;5055210;28;7983;-61
2022/08/04 07:42:26;;;;;;;;;;;;;;;30.18;39.16;94249.91;5051622;28;7329;-61
2022/08/04 07:44:55;;;;;;;;;;;;;;;30.18;38.41;94254.69;5073751;28;7250;-61
2022/08/04 07:47:22;;;;;;;;;;;;;;;30.19;38.54;94258.97;5073998;28;8953;-62
2022/08/04 07:49:51;;;;;;;;;;;;;;;30.19;38.77;94256.94;5070492;28;7172;-61
2022/08/04 07:52:51;;;;;;;;;;;;;;;30.19;38.96;94259.69;5049652;28;6972;-61
2022/08/04 07:55:28;;;;;;;;;;;;;;;30.18;39.31;94255.44;4972830;28;7014;-61
2022/08/04 07:58:20;;;;;;;;;;;;;;;30.18;39.07;94255.44;4972361;28;7310;-61
2022/08/04 08:00:50;;;;;;;;;;;;;;;30.16;39.09;94258.03;4972153;28;8790;-61
2022/08/04 08:03:19;;;;;;;;;;;;;;;30.15;38.24;94256.53;4973229;28;8021;-62
2022/08/04 08:05:59;;;;;;;;;;;;;;;30.16;38.77;94263.59;4973125;28;7497;-61
2022/08/04 08:08:26;;;;;;;;;;;;;;;30.16;38.85;94260.06;4971117;28;7013;-61
2022/08/04 08:10:55;;;;;;;;;;;;;;;30.16;38.94;94258.03;4956768;28;8899;-61
2022/08/04 08:13:32;;;;;;;;;;;;;;;30.16;38.69;94263.59;4955870;28;8077;-62
2022/08/04 08:16:01;;;;;;;;;;;;;;;30.15;38.38;94256.53;4956908;28;9331;-62
2022/08/04 08:18:30;;;;;;;;;;;;;;;30.13;38.33;94259.09;4956868;28;7074;-62
2022/08/04 08:20:57;;;;;;;;;;;;;;;30.14;38.63;94254.31;4962727;28;7252;-62
2022/08/04 08:23:25;;;;;;;;;;;;;;;30.15;38.46;94264.09;4971999;28;7272;-62
2022/08/04 08:26:05;;;;;;;;;;;;;;;30.15;39.24;94264.09;4956018;28;7087;-63
2022/08/04 08:28:46;;;;;;;;;;;;;;;30.14;38.35;94271.72;4955638;28;7198;-62
2022/08/04 08:31:16;;;;;;;;;;;;;;;30.14;38.21;94266.16;5014269;28;7167;-62
2022/08/04 08:34:19;;;;;;;;;;;;;;;30.13;38.54;94269.47;5053037;28;7276;-62
2022/08/04 08:37:33;;;;;;;;;;;;;;;30.13;38.21;94261.13;4942366;28;7235;-62
2022/08/04 08:40:26;;;;;;;;;;;;;;;30.14;38.57;94268.19;4932358;28;7001;-62
2022/08/04 08:43:39;;;;;;;;;;;;;;;30.16;39.39;94273.94;4935296;28;7300;-63
2022/08/04 08:46:44;;;;;;;;;;;;;;;30.17;39.15;94272.63;4946119;28;9576;-62
2022/08/04 08:49:50;;;;;;;;;;;;;;;30.17;38.83;94276.16;4943596;28;9101;-62
2022/08/04 08:52:34;;;;;;;;;;;;;;;30.19;39.18;94272.84;4933819;28;7242;-62
2022/08/04 08:55:45;;;;;;;;;;;;;;;30.20;38.16;94271.53;4945591;28;7184;-62
2022/08/04 08:59:10;;;;;;;;;;;;;;;30.21;38.36;94270.28;4941340;28;7227;-62
2022/08/04 09:02:21;;;;;;;;;;;;;;;30.21;38.31;94273.03;4943450;28;7190;-62
2022/08/04 09:05:23;;;;;;;;;;;;;;;30.22;38.29;94271.75;4943257;28;7309;-62
2022/08/04 09:08:21;;;;;;;;;;;;;;;30.22;38.59;94271.75;4939926;28;7328;-62
2022/08/04 09:11:03;;;;;;;;;;;;;;;30.23;38.15;94271.19;4938443;28;6993;-62
2022/08/04 09:13:42;;;;;;;;;;;;;;;30.25;38.45;94276.22;5059151;28;7292;-62
2022/08/04 09:16:17;;;;;;;;;;;;;;;30.23;37.82;94273.97;5042455;28;9043;-62
2022/08/04 09:18:59;;;;;;;;;;;;;;;30.26;37.97;94272.88;5041778;28;9621;-62
2022/08/04 09:21:25;;;;;;;;;;;;;;;30.27;38.21;94279.19;5067205;28;7722;-62
2022/08/04 09:24:05;;;;;;;;;;;;;;;30.27;38.39;94277.16;5049115;28;9044;-62
2022/08/04 09:26:39;;;;;;;;;;;;;;;30.28;37.61;94275.09;5051551;28;7598;-62
2022/08/04 09:29:20;;;;;;;;;;;;;;;30.31;37.46;94280.34;5071350;28;9142;-62
2022/08/04 09:32:25;;;;;;;;;;;;;;;30.31;37.79;94279.59;5069343;28;7754;-62
2022/08/04 09:35:09;;;;;;;;;;;;;;;30.31;38.89;94272.03;5070280;28;9082;-62
2022/08/04 09:37:40;;;;;;;;;;;;;;;30.30;38.35;94270.50;5054855;28;7027;-62
2022/08/04 09:40:33;;;;;;;;;;;;;;;30.31;37.90;94274.06;5051949;28;7059;-62
2022/08/04 09:43:31;;;;;;;;;;;;;;;30.30;38.91;94278.81;5049305;28;9107;-62
2022/08/04 09:46:16;;;;;;;;;;;;;;;30.28;38.59;94270.31;5070220;28;7270;-62
2022/08/04 09:48:51;;;;;;;;;;;;;;;30.28;38.53;94275.84;5067547;28;7254;-62
2022/08/04 09:51:57;;;;;;;;;;;;;;;30.27;37.93;94273.63;5065291;28;6989;-62
2022/08/04 09:54:38;;;;;;;;;;;;;;;30.27;38.92;94265.31;4948073;28;7066;-63
2022/08/04 09:57:40;;;;;;;;;;;;;;;30.26;37.89;94267.34;4964770;28;7240;-62
2022/08/04 10:00:33;;;;;;;;;;;;;;;30.27;38.42;94263.28;4967383;28;6931;-62
2022/08/04 10:03:11;;;;;;;;;;;;;;;30.29;37.72;94269.03;4954074;28;9050;-62
2022/08/04 10:06:00;;;;;;;;;;;;;;;30.28;39.02;94264.75;4951030;28;9101;-62
2022/08/04 10:09:08;;;;;;;;;;;;;;;30.29;38.32;94259.97;4950028;28;7124;-62
2022/08/04 10:11:36;;;;;;;;;;;;;;;30.30;38.92;94262.19;4964052;28;7234;-62
2022/08/04 10:14:17;;;;;;;;;;;;;;;30.29;38.79;94263.47;4964747;28;7247;-62
2022/08/04 10:17:20;;;;;;;;;;;;;;;30.31;38.05;94258.16;4949122;28;8748;-62
2022/08/04 10:20:01;;;;;;;;;;;;;;;30.31;38.86;94263.72;4963965;28;9088;-63
2022/08/04 10:22:37;;;;;;;;;;;;;;;30.31;38.83;94249.84;4964968;28;7072;-62
2022/08/04 10:25:16;;;;;;;;;;;;;;;30.32;38.01;94259.63;4964418;28;7460;-62
2022/08/04 10:28:05;;;;;;;;;;;;;;;30.34;37.70;94256.31;4949035;28;9100;-62
2022/08/04 10:30:38;;;;;;;;;;;;;;;30.37;38.91;94250.41;4997314;28;7171;-62
2022/08/04 10:33:45;;;;;;;;;;;;;;;30.37;37.90;94250.41;5047109;28;7367;-62
2022/08/04 10:36:20;;;;;;;;;;;;;;;30.38;38.65;94240.78;5070611;28;7022;-62
2022/08/04 10:39:08;;;;;;;;;;;;;;;30.39;38.22;94249.88;5069947;28;7069;-62
2022/08/04 10:42:00;;;;;;;;;;;;;;;30.39;38.42;94245.06;5070527;28;7239;-62
2022/08/04 10:44:35;;;;;;;;;;;;;;;30.41;38.32;94244.50;5067020;28;9069;-62
2022/08/04 10:47:06;;;;;;;;;;;;;;;30.42;38.44;94246.00;5047325;28;7090;-62
2022/08/04 10:49:34;;;;;;;;;;;;;;;30.40;38.51;94241.00;5065598;28;9458;-62
2022/08/04 10:52:16;;;;;;;;;;;;;;;30.44;38.62;94238.63;5047399;28;7538;-62
2022/08/04 10:54:56;;;;;;;;;;;;;;;30.42;37.95;94230.09;5047479;28;7782;-63
2022/08/04 10:57:34;;;;;;;;;;;;;;;30.43;37.72;94226.03;5039404;28;7183;-62
2022/08/04 11:00:23;;;;;;;;;;;;;;;30.44;37.88;94227.53;5069536;28;7102;-62
2022/08/04 11:03:07;;;;;;;;;;;;;;;30.44;38.26;94221.22;5068800;28;9224;-62
2022/08/04 11:05:57;;;;;;;;;;;;;;;30.45;38.39;94223.44;5069553;28;7460;-62
2022/08/04 11:08:46;;;;;;;;;;;;;;;30.45;38.63;94233.78;5045621;28;7197;-62
2022/08/04 11:11:38;;;;;;;;;;;;;;;30.46;38.32;94224.94;5067010;28;7277;-62
2022/08/04 11:14:09;;;;;;;;;;;;;;;30.46;38.03;94224.19;5068539;28;6985;-62
2022/08/04 11:16:50;;;;;;;;;;;;;;;30.46;38.47;94224.19;5052247;28;7188;-62
2022/08/04 11:19:32;;;;;;;;;;;;;;;30.45;38.47;94223.44;5052440;28;7475;-62
2022/08/04 11:22:19;;;;;;;;;;;;;;;30.47;38.33;94220.13;5043801;28;7351;-62
2022/08/04 11:25:13;;;;;;;;;;;;;;;30.48;37.71;94222.38;5044774;28;7240;-62
2022/08/04 11:27:52;;;;;;;;;;;;;;;30.49;38.84;94217.56;5068262;28;7288;-62
2022/08/04 11:31:06;;;;;;;;;;;;;;;30.48;38.22;94219.59;5068966;28;7429;-62
2022/08/04 11:33:56;;;;;;;;;;;;;;;30.46;38.64;94213.84;4998622;28;7334;-62
2022/08/04 11:37:12;;;;;;;;;;;;;;;30.48;38.88;94216.81;4990346;28;6896;-62
2022/08/04 11:40:21;;;;;;;;;;;;;;;30.50;37.95;94222.56;4982022;28;9174;-62
2022/08/04 11:43:15;;;;;;;;;;;;;;;30.50;38.30;94222.56;4983420;28;7008;-62
2022/08/04 11:45:59;;;;;;;;;;;;;;;30.49;38.51;94223.09;5003031;28;9361;-62
2022/08/04 11:48:35;;;;;;;;;;;;;;;30.47;38.25;94218.09;4994593;28;7025;-62
2022/08/04 11:51:04;;;;;;;;;;;;;;;30.49;38.59;94214.78;4984527;28;7293;-62
2022/08/04 11:53:33;;;;;;;;;;;;;;;30.49;37.76;94206.47;4982157;28;7366;-62
2022/08/04 11:56:07;;;;;;;;;;;;;;;30.48;37.97;94210.50;4985218;28;6857;-62
2022/08/04 11:58:49;;;;;;;;;;;;;;;30.47;37.92;94211.81;5001677;28;6990;-62
2022/08/04 12:01:55;;;;;;;;;;;;;;;30.50;38.15;94207.94;4993376;28;7214;-62
2022/08/04 12:04:58;;;;;;;;;;;;;;;30.52;38.15;94208.88;5001538;28;6999;-62
2022/08/04 12:12:01;;;;;;;;;;;;;;;30.54;38.17;94206.28;5068535;28;6804;-63
2022/08/04 12:14:51;;;;;;;;;;;;;;;30.54;38.48;94206.28;5003818;28;7522;-62
2022/08/04 12:17:39;;;;;;;;;;;;;;;30.57;38.46;94200.94;5002678;28;7214;-62
2022/08/04 12:20:09;;;;;;;;;;;;;;;30.57;38.02;94200.94;5007296;28;8749;-62
2022/08/04 12:22:47;;;;;;;;;;;;;;;30.58;38.06;94202.41;4994870;28;7318;-62
2022/08/04 12:25:39;;;;;;;;;;;;;;;30.58;38.57;94202.41;5004930;28;7068;-62
2022/08/04 12:28:31;;;;;;;;;;;;;;;30.60;38.11;94194.28;4992804;28;7275;-62
2022/08/04 12:31:13;;;;;;;;;;;;;;;30.60;38.34;94195.03;4993122;28;7257;-62
2022/08/04 12:34:22;;;;;;;;;;;;;;;30.62;38.92;94194.47;5004456;28;7390;-62
2022/08/04 12:37:24;;;;;;;;;;;;;;;30.62;38.96;94192.44;5003682;28;7235;-62
2022/08/04 12:40:35;;;;;;;;;;;;;;;30.63;39.02;94193.16;4952897;28;7115;-62
2022/08/04 12:43:10;;;;;;;;;;;;;;;30.64;38.10;94187.09;4914328;29;6949;-62
2022/08/04 12:45:45;;;;;;;;;;;;;;;30.64;38.37;94183.56;4932890;29;9040;-62
2022/08/04 12:48:13;;;;;;;;;;;;;;;30.66;38.75;94180.97;4920088;29;7163;-62
2022/08/04 12:50:40;;;;;;;;;;;;;;;30.65;38.01;94182.25;4886068;29;7242;-62
2022/08/04 12:53:15;;;;;;;;;;;;;;;30.67;38.28;94176.91;4906523;29;7032;-62
2022/08/04 12:55:48;;;;;;;;;;;;;;;30.68;38.48;94167.28;4884116;29;7307;-62
2022/08/04 12:58:23;;;;;;;;;;;;;;;30.70;38.53;94176.56;4899376;29;7342;-62
2022/08/04 13:01:37;;;;;;;;;;;;;;;30.72;38.96;94173.22;4894091;29;8678;-62
2022/08/04 13:04:19;;;;;;;;;;;;;;;30.72;38.25;94170.44;4847972;29;7237;-62
2022/08/04 13:07:16;;;;;;;;;;;;;;;30.73;37.76;94169.16;4849087;29;7227;-62
2022/08/04 13:09:46;;;;;;;;;;;;;;;30.72;38.43;94167.66;4850608;29;7010;-62
2022/08/04 13:12:22;;;;;;;;;;;;;;;30.74;38.74;94162.31;4846658;29;9028;-62
2022/08/04 13:15:11;;;;;;;;;;;;;;;30.75;38.50;94161.78;4854341;29;6919;-62
2022/08/04 13:17:56;;;;;;;;;;;;;;;30.76;38.25;94166.03;4908517;29;7363;-62
2022/08/04 13:20:30;;;;;;;;;;;;;;;30.77;37.87;94155.66;4958378;28;9465;-62
2022/08/04 13:23:06;;;;;;;;;;;;;;;30.77;39.19;94153.63;4959959;28;7169;-62
2022/08/04 13:25:48;;;;;;;;;;;;;;;30.78;38.91;94146.03;4943381;28;7217;-62
2022/08/04 13:28:51;;;;;;;;;;;;;;;30.81;38.91;94147.72;4930509;28;7184;-62
2022/08/04 13:31:23;;;;;;;;;;;;;;;30.81;38.99;94142.16;4925758;28;9016;-62
2022/08/04 13:33:53;;;;;;;;;;;;;;;30.81;38.35;94140.13;4927896;28;8814;-62
2022/08/04 13:36:25;;;;;;;;;;;;;;;30.81;38.17;94140.13;4928170;28;7002;-62
2022/08/04 13:39:07;;;;;;;;;;;;;;;30.83;38.95;94134.00;4924876;28;7852;-62
2022/08/04 13:41:58;;;;;;;;;;;;;;;30.83;37.99;94136.78;5016599;28;7108;-62
2022/08/04 13:44:37;;;;;;;;;;;;;;;30.85;38.60;94134.19;5022116;28;9575;-62
2022/08/04 13:47:23;;;;;;;;;;;;;;;30.86;38.82;94138.47;5019409;28;7176;-62
2022/08/04 13:50:13;;;;;;;;;;;;;;;30.85;38.65;94137.72;5003693;28;7239;-62
2022/08/04 13:52:41;;;;;;;;;;;;;;;30.89;38.32;94131.81;5019945;28;7232;-62
2022/08/04 13:55:18;;;;;;;;;;;;;;;30.90;38.55;94130.53;5021714;28;9326;-62
2022/08/04 13:57:52;;;;;;;;;;;;;;;30.92;38.60;94125.16;5004609;28;7338;-62
2022/08/04 14:00:24;;;;;;;;;;;;;;;30.90;38.91;94120.19;5021581;28;7235;-62
2022/08/04 14:03:07;;;;;;;;;;;;;;;30.92;38.58;94119.63;5017364;28;8550;-62
2022/08/04 14:05:33;;;;;;;;;;;;;;;30.91;38.58;94118.88;5010082;28;7231;-62
2022/08/04 14:08:07;;;;;;;;;;;;;;;30.92;38.60;94109.25;5041555;28;9233;-62
2022/08/04 14:10:38;;;;;;;;;;;;;;;30.92;38.02;94108.50;5066003;28;9072;-62
2022/08/04 14:13:06;;;;;;;;;;;;;;;30.94;38.23;94117.03;5039649;28;7249;-62
2022/08/04 14:15:38;;;;;;;;;;;;;;;30.96;38.91;94108.88;5066949;28;7257;-62
2022/08/04 14:18:22;;;;;;;;;;;;;;;30.99;37.77;94107.78;5065262;28;7436;-62
2022/08/04 14:21:10;;;;;;;;;;;;;;;30.97;38.80;94108.31;5047531;28;7131;-62
2022/08/04 14:23:55;;;;;;;;;;;;;;;30.98;38.06;94111.84;5048017;28;7203;-62
2022/08/04 14:26:24;;;;;;;;;;;;;;;30.98;38.10;94103.50;5064767;28;7247;-62
2022/08/04 14:28:53;;;;;;;;;;;;;;;30.99;38.77;94108.50;5047599;28;7167;-62